Airfield :
LOGIN :

Register | Disclaimer

   EN    FR    IT 

 










Legend :    VFR   Marginal VFR   IFR   Intensive IFR   Very Intensive IFR
Visi :
Ceiling :
>= 8 km
>= 3000ft
5 to 8 km
1000 to 3000 ft
1500m to 5 km
500 to 1000 ft
800 to 1500m
200 to 500 ft
< 800m
< 200 ft
Symbols :   Thunderstorms  Fog  Heavy snow  Heavy precipitations  Wind > 20 kt
SIGMETs :     Misc.  Thunderstorms  Icing  Turbulence  Mountain Waves  Volcanic Ashes







- Airport Elevation : 458 ft
- Download approach charts


LFSI - St-Dizier

CURRENT METAR :
  • 201800Z AUTO 01003KT 9999 OVC048 25/17 Q1019

EXPIRED METARs :
  • 201730Z AUTO 36003KT 330V030 CAVOK 25/17 Q1020
  • 201700Z AUTO VRB03KT CAVOK 25/17 Q1020
  • 201630Z AUTO 01004KT 340V050 CAVOK 25/17 Q1020
  • 201600Z AUTO VRB03KT 9999 FEW034 OVC052 25/17 Q1020
  • 201530Z AUTO 34005KT 280V030 CAVOK 25/17 Q1020

TAF TAF LFSI
Valid from the 20 at 15:00 until the 21 at 15:00 UTC


201400Z 2015/2115 32005KT 9999 BKN045
TEMPO 2103/2107 4000 BR
No reported NOTAMs for that airfield.



MET'MAP, your aeronautical weather chart ! - Copyright ORBIFLY December 2007 - Disclaimer

ORBIFLY MET'MAP TEAM :

Programming & Development : Alexandra Zaïnal
Concept & Development : Baudouin d'Aumeries
Co-Development & Prog : Marc-Olivier Méhu
Technical & hardware support : Manuel Goepfert

Contact : metmap@orbifly.com




SOURCES & CREDITS :

   NOAA